createdAt,value
2022-11-07T00:01:39.895Z,91.50
2022-11-07T00:12:01.537Z,91.17
2022-11-07T00:22:22.979Z,90.96
2022-11-07T00:32:44.394Z,91.04
2022-11-07T00:43:05.814Z,90.85
2022-11-07T00:53:27.249Z,91.59
2022-11-07T01:04:07.987Z,90.89
2022-11-07T01:14:29.466Z,91.67
2022-11-07T01:24:50.927Z,91.33
2022-11-07T01:35:12.406Z,91.20
2022-11-07T01:45:33.928Z,91.14
2022-11-07T01:55:55.410Z,90.97
2022-11-07T02:06:26.494Z,91.17
2022-11-07T02:16:47.983Z,91.29
2022-11-07T02:27:14.398Z,91.51
2022-11-07T02:37:38.416Z,91.42
2022-11-07T02:48:00.307Z,92.19
2022-11-07T02:58:21.634Z,91.99
2022-11-07T03:08:45.969Z,91.55
2022-11-07T03:19:07.463Z,91.49
2022-11-07T03:29:28.866Z,91.56
2022-11-07T03:39:50.299Z,91.55
2022-11-07T03:50:18.098Z,91.72
2022-11-07T04:00:39.507Z,91.89
2022-11-07T04:11:00.953Z,91.96
2022-11-07T04:21:22.812Z,91.42
2022-11-07T04:31:44.114Z,92.33
2022-11-07T04:42:05.600Z,92.06
2022-11-07T04:52:27.052Z,91.83
2022-11-07T05:02:49.456Z,91.13
2022-11-07T05:13:10.974Z,91.51
2022-11-07T05:23:32.391Z,91.25
2022-11-07T05:33:53.814Z,92.00
2022-11-07T05:44:15.259Z,92.32
2022-11-07T05:54:36.678Z,92.12
2022-11-07T06:04:58.257Z,92.74
2022-11-07T06:15:19.673Z,92.50
2022-11-07T06:25:41.459Z,92.25
2022-11-07T06:36:11.319Z,92.70
2022-11-07T06:46:32.796Z,92.96
2022-11-07T06:56:54.211Z,93.17
2022-11-07T07:07:15.617Z,92.90
2022-11-07T07:17:37.086Z,93.61
2022-11-07T07:27:58.501Z,92.66
2022-11-07T07:38:19.925Z,92.36
2022-11-07T07:48:41.600Z,92.06
2022-11-07T07:59:03.265Z,92.19
2022-11-07T08:09:24.691Z,92.62
2022-11-07T08:19:46.110Z,92.63
2022-11-07T08:30:12.621Z,91.77
2022-11-07T08:40:36.678Z,91.58
2022-11-07T08:50:59.063Z,90.65
2022-11-07T09:01:20.509Z,91.72
2022-11-07T09:11:42.504Z,91.50
2022-11-07T09:22:04.142Z,90.75
2022-11-07T09:32:43.998Z,90.62
2022-11-07T09:43:25.679Z,90.61
2022-11-07T09:53:55.032Z,90.03
2022-11-07T10:04:25.183Z,91.19
2022-11-07T10:15:10.529Z,90.27
2022-11-07T10:25:44.341Z,89.74
2022-11-07T10:36:17.222Z,89.42
2022-11-07T10:46:41.103Z,90.01
2022-11-07T10:57:07.009Z,90.22
2022-11-07T11:07:38.052Z,92.05
2022-11-07T11:18:01.515Z,92.08
2022-11-07T11:28:29.997Z,91.52
2022-11-07T11:38:55.462Z,89.88
2022-11-07T11:49:23.221Z,93.28
2022-11-07T11:59:59.298Z,96.39
2022-11-07T12:10:29.290Z,96.52
2022-11-07T12:20:57.299Z,93.35
2022-11-07T12:31:25.043Z,92.63
2022-11-07T12:42:03.444Z,91.28
2022-11-07T12:52:36.227Z,90.48
2022-11-07T13:03:09.866Z,89.25
2022-11-07T13:13:54.428Z,89.52
2022-11-07T13:24:22.325Z,89.11
2022-11-07T13:34:47.468Z,89.39
2022-11-07T13:45:26.786Z,89.25
2022-11-07T13:56:00.230Z,88.72
2022-11-07T14:06:22.824Z,88.97
2022-11-07T14:16:45.675Z,88.92
2022-11-07T14:27:13.855Z,89.03
2022-11-07T14:37:35.409Z,89.76
2022-11-07T14:47:56.899Z,89.49
2022-11-07T14:58:22.049Z,90.00
2022-11-07T15:08:43.465Z,89.92
2022-11-07T15:19:08.764Z,90.25
2022-11-07T15:29:33.204Z,91.09
2022-11-07T15:39:54.630Z,91.21
2022-11-07T15:50:17.781Z,91.05
2022-11-07T16:00:39.234Z,91.16
2022-11-07T16:11:02.208Z,91.14
2022-11-07T16:21:23.661Z,91.55
2022-11-07T16:31:45.084Z,91.21
2022-11-07T16:42:13.572Z,91.43
2022-11-07T16:52:34.990Z,92.64
2022-11-07T17:02:56.494Z,91.82
2022-11-07T17:13:18.636Z,91.57
2022-11-07T17:23:40.067Z,91.66
2022-11-07T17:34:01.594Z,92.04
2022-11-07T17:44:23.102Z,92.47
2022-11-07T17:54:44.527Z,92.15
2022-11-07T18:05:06.288Z,92.41
2022-11-07T18:15:27.734Z,92.03
2022-11-07T18:25:49.229Z,92.98
2022-11-07T18:36:14.197Z,92.77
2022-11-07T18:46:36.080Z,93.81
2022-11-07T18:56:57.563Z,95.08
2022-11-07T19:07:19.064Z,96.05
2022-11-07T19:17:40.547Z,96.07
2022-11-07T19:28:01.998Z,98.07
2022-11-07T19:38:23.561Z,98.40
2022-11-07T19:48:44.902Z,100.00
2022-11-07T19:59:06.381Z,99.69
2022-11-07T20:09:27.889Z,98.52
2022-11-07T20:19:49.361Z,98.27
2022-11-07T20:30:11.633Z,98.21
2022-11-07T20:40:33.121Z,98.43
2022-11-07T20:50:54.532Z,96.51
2022-11-07T21:01:19.142Z,95.40
2022-11-07T21:11:42.293Z,95.02
2022-11-07T21:22:04.304Z,94.52
2022-11-07T21:32:25.839Z,93.94
2022-11-07T21:42:47.265Z,93.29
2022-11-07T21:53:08.871Z,92.46
2022-11-07T22:03:51.555Z,93.27
2022-11-07T22:14:14.644Z,92.61
2022-11-07T22:24:36.059Z,92.22
2022-11-07T22:34:57.503Z,92.34
2022-11-07T22:45:18.943Z,92.13
2022-11-07T22:55:40.361Z,91.46
2022-11-07T23:06:04.253Z,91.74
2022-11-07T23:16:32.941Z,92.43
2022-11-07T23:26:54.768Z,92.75
2022-11-07T23:37:17.961Z,93.15
2022-11-07T23:47:58.052Z,93.17
2022-11-07T23:58:38.153Z,93.37
